sensor_id;sensor_type;location;lat;lon;timestamp;pressure;altitude;pressure_sealevel;temperature;humidity
44144;BME280;43510;51.920;4.492;2022-12-18T00:03:47;65795.44;;;-0.68;100.00
44144;BME280;43510;51.920;4.492;2022-12-18T00:06:18;65794.31;;;-0.76;100.00
44144;BME280;43510;51.920;4.492;2022-12-18T00:08:44;65790.09;;;-0.77;100.00
44144;BME280;43510;51.920;4.492;2022-12-18T00:11:15;65786.22;;;-0.81;100.00
44144;BME280;43510;51.920;4.492;2022-12-18T00:13:41;65777.78;;;-0.84;100.00
44144;BME280;43510;51.920;4.492;2022-12-18T00:16:19;65787.50;;;-0.77;100.00
44144;BME280;43510;51.920;4.492;2022-12-18T00:18:46;65789.56;;;-0.78;100.00
44144;BME280;43510;51.920;4.492;2022-12-18T00:21:13;65786.44;;;-0.78;100.00
44144;BME280;43510;51.920;4.492;2022-12-18T00:23:40;65777.78;;;-0.84;100.00
44144;BME280;43510;51.920;4.492;2022-12-18T00:26:09;65775.00;;;-0.87;100.00
44144;BME280;43510;51.920;4.492;2022-12-18T00:28:35;65769.50;;;-0.92;100.00
44144;BME280;43510;51.920;4.492;2022-12-18T00:31:06;65770.75;;;-0.95;100.00
44144;BME280;43510;51.920;4.492;2022-12-18T00:33:33;65776.31;;;-0.90;100.00
44144;BME280;43510;51.920;4.492;2022-12-18T00:36:06;65773.34;;;-0.88;100.00
44144;BME280;43510;51.920;4.492;2022-12-18T00:38:32;65768.56;;;-0.97;100.00
44144;BME280;43510;51.920;4.492;2022-12-18T00:40:58;65764.91;;;-0.98;100.00
44144;BME280;43510;51.920;4.492;2022-12-18T00:43:23;65762.50;;;-1.03;100.00
44144;BME280;43510;51.920;4.492;2022-12-18T00:45:49;65754.59;;;-1.05;100.00
44144;BME280;43510;51.920;4.492;2022-12-18T00:48:14;65753.13;;;-1.11;100.00
44144;BME280;43510;51.920;4.492;2022-12-18T00:50:39;65747.97;;;-1.11;100.00
44144;BME280;43510;51.920;4.492;2022-12-18T00:53:05;65745.78;;;-1.13;100.00
44144;BME280;43510;51.920;4.492;2022-12-18T00:55:32;65746.88;;;-1.12;100.00
44144;BME280;43510;51.920;4.492;2022-12-18T00:57:57;65744.66;;;-1.14;100.00
44144;BME280;43510;51.920;4.492;2022-12-18T01:00:23;65754.22;;;-1.10;100.00
44144;BME280;43510;51.920;4.492;2022-12-18T01:02:48;65746.31;;;-1.13;100.00
44144;BME280;43510;51.920;4.492;2022-12-18T01:05:14;65750.53;;;-1.11;100.00
44144;BME280;43510;51.920;4.492;2022-12-18T01:07:40;65749.81;;;-1.14;100.00
44144;BME280;43510;51.920;4.492;2022-12-18T01:10:07;65745.94;;;-1.18;100.00
44144;BME280;43510;51.920;4.492;2022-12-18T01:12:33;65743.91;;;-1.17;100.00
44144;BME280;43510;51.920;4.492;2022-12-18T01:14:58;65743.56;;;-1.15;100.00
44144;BME280;43510;51.920;4.492;2022-12-18T01:17:24;65742.47;;;-1.16;100.00
44144;BME280;43510;51.920;4.492;2022-12-18T01:19:49;65737.84;;;-1.23;100.00
44144;BME280;43510;51.920;4.492;2022-12-18T01:22:15;65737.50;;;-1.21;100.00
44144;BME280;43510;51.920;4.492;2022-12-18T01:24:40;65748.34;;;-1.13;100.00
44144;BME280;43510;51.920;4.492;2022-12-18T01:27:06;65743.56;;;-1.15;100.00
44144;BME280;43510;51.920;4.492;2022-12-18T01:29:33;65745.78;;;-1.13;100.00
44144;BME280;43510;51.920;4.492;2022-12-18T01:31:58;65744.81;;;-1.19;100.00
44144;BME280;43510;51.920;4.492;2022-12-18T01:34:24;65743.75;;;-1.20;100.00
44144;BME280;43510;51.920;4.492;2022-12-18T01:36:49;65739.69;;;-1.19;100.00
44144;BME280;43510;51.920;4.492;2022-12-18T01:39:18;65746.50;;;-1.17;100.00
44144;BME280;43510;51.920;4.492;2022-12-18T01:41:44;65738.41;;;-1.23;100.00
44144;BME280;43510;51.920;4.492;2022-12-18T01:47:35;65746.13;;;-1.15;100.00
44144;BME280;43510;51.920;4.492;2022-12-18T01:50:14;65749.44;;;-1.12;100.00
44144;BME280;43510;51.920;4.492;2022-12-18T01:52:43;65745.03;;;-1.16;100.00
44144;BME280;43510;51.920;4.492;2022-12-18T01:55:10;65734.34;;;-1.29;100.00
44144;BME280;43510;51.920;4.492;2022-12-18T01:57:38;65722.22;;;-1.40;100.00
44144;BME280;43510;51.920;4.492;2022-12-18T02:00:12;65721.31;;;-1.38;100.00
44144;BME280;43510;51.920;4.492;2022-12-18T02:02:43;65718.00;;;-1.41;100.00
44144;BME280;43510;51.920;4.492;2022-12-18T02:05:10;65718.53;;;-1.41;100.00
44144;BME280;43510;51.920;4.492;2022-12-18T02:11:07;65718.53;;;-1.41;100.00
44144;BME280;43510;51.920;4.492;2022-12-18T02:19:00;65713.38;;;-1.48;100.00
44144;BME280;43510;51.920;4.492;2022-12-18T02:21:46;65714.13;;;-1.45;100.00
44144;BME280;43510;51.920;4.492;2022-12-18T02:24:22;65712.28;;;-1.49;100.00
44144;BME280;43510;51.920;4.492;2022-12-18T02:26:58;65707.69;;;-1.48;100.00
44144;BME280;43510;51.920;4.492;2022-12-18T02:29:50;65714.84;;;-1.49;100.00
44144;BME280;43510;51.920;4.492;2022-12-18T02:32:20;65716.16;;;-1.45;100.00
44144;BME280;43510;51.920;4.492;2022-12-18T02:34:50;65713.03;;;-1.46;100.00
44144;BME280;43510;51.920;4.492;2022-12-18T02:37:18;65709.34;;;-1.47;100.00
44144;BME280;43510;51.920;4.492;2022-12-18T02:39:47;65715.25;;;-1.44;100.00
44144;BME280;43510;51.920;4.492;2022-12-18T02:42:14;65709.34;;;-1.47;100.00
44144;BME280;43510;51.920;4.492;2022-12-18T02:44:45;65713.03;;;-1.46;100.00
44144;BME280;43510;51.920;4.492;2022-12-18T02:47:15;65712.28;;;-1.49;100.00
44144;BME280;43510;51.920;4.492;2022-12-18T02:50:10;65719.44;;;-1.42;100.00
44144;BME280;43510;51.920;4.492;2022-12-18T03:03:59;65713.75;;;-1.43;100.00
44144;BME280;43510;51.920;4.492;2022-12-18T03:06:30;65708.41;;;-1.52;100.00
44144;BME280;43510;51.920;4.492;2022-12-18T03:09:08;65706.22;;;-1.54;100.00
44144;BME280;43510;51.920;4.492;2022-12-18T03:11:38;65703.63;;;-1.54;100.00
44144;BME280;43510;51.920;4.492;2022-12-18T03:14:25;65710.25;;;-1.48;100.00
44144;BME280;43510;51.920;4.492;2022-12-18T03:16:54;65710.09;;;-1.51;100.00
44144;BME280;43510;51.920;4.492;2022-12-18T03:19:26;65705.66;;;-1.55;100.00
44144;BME280;43510;51.920;4.492;2022-12-18T03:21:55;65699.44;;;-1.56;100.00
44144;BME280;43510;51.920;4.492;2022-12-18T03:24:24;65698.69;;;-1.59;100.00
44144;BME280;43510;51.920;4.492;2022-12-18T03:26:54;65700.53;;;-1.62;100.00
44144;BME280;43510;51.920;4.492;2022-12-18T03:29:27;65696.50;;;-1.61;100.00
44144;BME280;43510;51.920;4.492;2022-12-18T03:32:05;65702.00;;;-1.56;100.00
44144;BME280;43510;51.920;4.492;2022-12-18T03:34:35;65697.94;;;-1.62;100.00
44144;BME280;43510;51.920;4.492;2022-12-18T03:37:04;65689.13;;;-1.70;100.00
44144;BME280;43510;51.920;4.492;2022-12-18T03:39:30;65682.69;;;-1.74;100.00
44144;BME280;43510;51.920;4.492;2022-12-18T03:44:57;65694.63;;;-1.65;100.00
44144;BME280;43510;51.920;4.492;2022-12-18T03:47:38;65690.03;;;-1.65;100.00
44144;BME280;43510;51.920;4.492;2022-12-18T03:50:29;65694.28;;;-1.63;100.00
44144;BME280;43510;51.920;4.492;2022-12-18T03:55:50;65682.16;;;-1.74;100.00
44144;BME280;43510;51.920;4.492;2022-12-18T03:58:20;65678.47;;;-1.75;100.00
44144;BME280;43510;51.920;4.492;2022-12-18T04:00:49;65683.25;;;-1.73;100.00
44144;BME280;43510;51.920;4.492;2022-12-18T04:03:17;65677.38;;;-1.76;100.00
44144;BME280;43510;51.920;4.492;2022-12-18T04:05:48;65678.47;;;-1.75;100.00
44144;BME280;43510;51.920;4.492;2022-12-18T04:08:15;65679.94;;;-1.76;100.00
44144;BME280;43510;51.920;4.492;2022-12-18T04:10:41;65674.41;;;-1.81;100.00
44144;BME280;43510;51.920;4.492;2022-12-18T04:13:06;65674.44;;;-1.74;100.00
44144;BME280;43510;51.920;4.492;2022-12-18T04:15:34;65680.47;;;-1.76;100.00
44144;BME280;43510;51.920;4.492;2022-12-18T04:18:00;65685.81;;;-1.73;100.00
44144;BME280;43510;51.920;4.492;2022-12-18T04:20:27;65687.47;;;-1.72;100.00
44144;BME280;43510;51.920;4.492;2022-12-18T04:22:52;65679.56;;;-1.74;100.00
44144;BME280;43510;51.920;4.492;2022-12-18T04:25:17;65672.75;;;-1.83;100.00
44144;BME280;43510;51.920;4.492;2022-12-18T04:27:43;65669.25;;;-1.88;100.00
44144;BME280;43510;51.920;4.492;2022-12-18T04:30:09;65659.00;;;-1.88;100.00
44144;BME280;43510;51.920;4.492;2022-12-18T04:32:35;65663.03;;;-1.89;100.00
44144;BME280;43510;51.920;4.492;2022-12-18T04:35:02;65681.03;;;-1.75;100.00
44144;BME280;43510;51.920;4.492;2022-12-18T04:37:29;65677.38;;;-1.76;100.00
44144;BME280;43510;51.920;4.492;2022-12-18T04:39:55;65681.22;;;-1.80;100.00
44144;BME280;43510;51.920;4.492;2022-12-18T04:42:20;65674.06;;;-1.79;100.00
44144;BME280;43510;51.920;4.492;2022-12-18T04:44:45;65671.31;;;-1.82;100.00
44144;BME280;43510;51.920;4.492;2022-12-18T04:47:11;65675.88;;;-1.82;100.00
44144;BME280;43510;51.920;4.492;2022-12-18T04:49:36;65674.22;;;-1.84;100.00
44144;BME280;43510;51.920;4.492;2022-12-18T04:52:01;65669.63;;;-1.83;100.00
44144;BME280;43510;51.920;4.492;2022-12-18T04:54:28;65663.03;;;-1.89;100.00
44144;BME280;43510;51.920;4.492;2022-12-18T04:56:53;65679.94;;;-1.76;100.00
44144;BME280;43510;51.920;4.492;2022-12-18T04:59:19;65672.03;;;-1.79;100.00
44144;BME280;43510;51.920;4.492;2022-12-18T05:01:44;65689.66;;;-1.70;100.00
44144;BME280;43510;51.920;4.492;2022-12-18T05:04:10;65679.19;;;-1.79;100.00
44144;BME280;43510;51.920;4.492;2022-12-18T05:06:36;65689.66;;;-1.70;100.00
44144;BME280;43510;51.920;4.492;2022-12-18T05:09:01;65691.50;;;-1.66;100.00
44144;BME280;43510;51.920;4.492;2022-12-18T05:11:26;65688.56;;;-1.71;100.00
44144;BME280;43510;51.920;4.492;2022-12-18T05:13:52;65687.66;;;-1.69;100.00
44144;BME280;43510;51.920;4.492;2022-12-18T05:16:17;65682.88;;;-1.71;100.00
44144;BME280;43510;51.920;4.492;2022-12-18T05:18:43;65681.78;;;-1.72;100.00
44144;BME280;43510;51.920;4.492;2022-12-18T05:21:08;65690.97;;;-1.66;100.00
44144;BME280;43510;51.920;4.492;2022-12-18T05:23:33;65691.34;;;-1.68;100.00
44144;BME280;43510;51.920;4.492;2022-12-18T05:26:02;65672.22;;;-1.83;100.00
44144;BME280;43510;51.920;4.492;2022-12-18T05:28:29;65686.19;;;-1.68;100.00
44144;BME280;43510;51.920;4.492;2022-12-18T05:30:57;65693.53;;;-1.66;100.00
44144;BME280;43510;51.920;4.492;2022-12-18T05:33:25;65675.72;;;-1.78;100.00
44144;BME280;43510;51.920;4.492;2022-12-18T05:35:58;65696.66;;;-1.66;100.00
44144;BME280;43510;51.920;4.492;2022-12-18T05:38:29;65682.88;;;-1.71;100.00
44144;BME280;43510;51.920;4.492;2022-12-18T05:40:55;65687.47;;;-1.72;100.00
44144;BME280;43510;51.920;4.492;2022-12-18T05:43:21;65691.34;;;-1.68;100.00
44144;BME280;43510;51.920;4.492;2022-12-18T05:45:48;65681.78;;;-1.72;100.00
44144;BME280;43510;51.920;4.492;2022-12-18T05:48:14;65679.56;;;-1.74;100.00
44144;BME280;43510;51.920;4.492;2022-12-18T05:50:41;65677.34;;;-1.83;100.00
44144;BME280;43510;51.920;4.492;2022-12-18T05:53:07;65677.00;;;-1.81;100.00
44144;BME280;43510;51.920;4.492;2022-12-18T05:55:37;65674.78;;;-1.83;100.00
44144;BME280;43510;51.920;4.492;2022-12-18T05:58:04;65670.56;;;-1.85;100.00
44144;BME280;43510;51.920;4.492;2022-12-18T06:00:32;65667.44;;;-1.85;100.00
44144;BME280;43510;51.920;4.492;2022-12-18T06:02:58;65670.72;;;-1.89;100.00
44144;BME280;43510;51.920;4.492;2022-12-18T06:05:24;65667.06;;;-1.90;100.00
44144;BME280;43510;51.920;4.492;2022-12-18T06:07:49;65661.19;;;-1.93;100.00
44144;BME280;43510;51.920;4.492;2022-12-18T06:10:15;65658.63;;;-1.93;100.00
44144;BME280;43510;51.920;4.492;2022-12-18T06:12:40;65653.09;;;-1.98;100.00
44144;BME280;43510;51.920;4.492;2022-12-18T06:15:06;65651.44;;;-2.00;100.00
44144;BME280;43510;51.920;4.492;2022-12-18T06:17:34;65657.13;;;-1.99;100.00
44144;BME280;43510;51.920;4.492;2022-12-18T06:19:59;65656.41;;;-1.95;100.00
44144;BME280;43510;51.920;4.492;2022-12-18T06:22:26;65655.47;;;-2.01;100.00
44144;BME280;43510;51.920;4.492;2022-12-18T06:24:52;65656.03;;;-2.00;100.00
44144;BME280;43510;51.920;4.492;2022-12-18T06:27:17;65643.56;;;-2.10;99.81
44144;BME280;43510;51.920;4.492;2022-12-18T06:29:43;65648.31;;;-2.08;99.99
44144;BME280;43510;51.920;4.492;2022-12-18T06:32:08;65639.13;;;-2.14;99.82
44144;BME280;43510;51.920;4.492;2022-12-18T06:34:34;65646.28;;;-2.07;99.81
44144;BME280;43510;51.920;4.492;2022-12-18T06:36:59;65650.72;;;-2.03;99.73
44144;BME280;43510;51.920;4.492;2022-12-18T06:39:27;65652.72;;;-2.03;99.90
44144;BME280;43510;51.920;4.492;2022-12-18T06:41:52;65644.66;;;-2.09;99.55
44144;BME280;43510;51.920;4.492;2022-12-18T06:44:18;65652.00;;;-1.99;98.60
44144;BME280;43510;51.920;4.492;2022-12-18T06:46:43;65648.50;;;-2.05;98.50
44144;BME280;43510;51.920;4.492;2022-12-18T06:49:09;65654.38;;;-2.02;98.13
44144;BME280;43510;51.920;4.492;2022-12-18T06:51:35;65640.44;;;-2.10;97.57
44144;BME280;43510;51.920;4.492;2022-12-18T06:54:01;65646.13;;;-2.10;97.31
44144;BME280;43510;51.920;4.492;2022-12-18T06:56:29;65653.81;;;-2.02;97.00
44144;BME280;43510;51.920;4.492;2022-12-18T06:58:55;65646.50;;;-2.04;95.82
44144;BME280;43510;51.920;4.492;2022-12-18T07:01:21;65647.94;;;-2.06;95.79
44144;BME280;43510;51.920;4.492;2022-12-18T07:03:47;65650.88;;;-2.08;95.93
44144;BME280;43510;51.920;4.492;2022-12-18T07:06:18;65642.44;;;-2.11;95.42
44144;BME280;43510;51.920;4.492;2022-12-18T07:08:45;65645.56;;;-2.10;95.08
44144;BME280;43510;51.920;4.492;2022-12-18T07:11:11;65639.50;;;-2.16;95.38
44144;BME280;43510;51.920;4.492;2022-12-18T07:13:37;65648.31;;;-2.08;94.94
44144;BME280;43510;51.920;4.492;2022-12-18T07:16:14;65642.09;;;-2.09;95.22
44144;BME280;43510;51.920;4.492;2022-12-18T07:18:39;65628.09;;;-2.24;94.85
44144;BME280;43510;51.920;4.492;2022-12-18T07:21:07;65627.00;;;-2.25;94.54
44144;BME280;43510;51.920;4.492;2022-12-18T07:23:33;65619.47;;;-2.29;94.44
44144;BME280;43510;51.920;4.492;2022-12-18T07:26:04;65627.38;;;-2.27;94.28
44144;BME280;43510;51.920;4.492;2022-12-18T07:28:30;65615.97;;;-2.35;93.81
44144;BME280;43510;51.920;4.492;2022-12-18T07:30:56;65614.69;;;-2.38;93.71
44144;BME280;43510;51.920;4.492;2022-12-18T07:33:21;65606.81;;;-2.41;94.55
44144;BME280;43510;51.920;4.492;2022-12-18T07:35:46;65615.06;;;-2.33;94.35
44144;BME280;43510;51.920;4.492;2022-12-18T07:38:12;65612.31;;;-2.36;93.94
44144;BME280;43510;51.920;4.492;2022-12-18T07:40:37;65626.28;;;-2.28;93.60
44144;BME280;43510;51.920;4.492;2022-12-18T07:43:03;65624.59;;;-2.29;93.81
44144;BME280;43510;51.920;4.492;2022-12-18T07:45:28;65617.09;;;-2.34;93.45
44144;BME280;43510;51.920;4.492;2022-12-18T07:47:54;65616.53;;;-2.34;93.27
44144;BME280;43510;51.920;4.492;2022-12-18T07:50:19;65616.91;;;-2.29;92.89
44144;BME280;43510;51.920;4.492;2022-12-18T07:52:44;65621.84;;;-2.32;92.97
44144;BME280;43510;51.920;4.492;2022-12-18T07:55:10;65628.84;;;-2.28;93.04
44144;BME280;43510;51.920;4.492;2022-12-18T07:57:35;65631.44;;;-2.21;93.11
44144;BME280;43510;51.920;4.492;2022-12-18T08:00:01;65632.72;;;-2.17;93.17
44144;BME280;43510;51.920;4.492;2022-12-18T08:02:26;65629.94;;;-2.20;93.14
44144;BME280;43510;51.920;4.492;2022-12-18T08:04:52;65627.75;;;-2.22;92.86
44144;BME280;43510;51.920;4.492;2022-12-18T08:07:19;65638.75;;;-2.19;92.90
44144;BME280;43510;51.920;4.492;2022-12-18T08:09:44;65637.84;;;-2.17;93.01
44144;BME280;43510;51.920;4.492;2022-12-18T08:12:09;65644.47;;;-2.11;92.97
44144;BME280;43510;51.920;4.492;2022-12-18T08:14:35;65632.72;;;-2.17;93.38
44144;BME280;43510;51.920;4.492;2022-12-18T08:17:00;65640.22;;;-2.13;92.69
44144;BME280;43510;51.920;4.492;2022-12-18T08:19:25;65644.09;;;-2.09;93.00
44144;BME280;43510;51.920;4.492;2022-12-18T08:21:52;65649.63;;;-2.04;92.95
44144;BME280;43510;51.920;4.492;2022-12-18T08:24:17;65650.91;;;-2.00;92.60
44144;BME280;43510;51.920;4.492;2022-12-18T08:26:42;65657.88;;;-1.96;91.72
44144;BME280;43510;51.920;4.492;2022-12-18T08:29:08;65663.03;;;-1.89;91.69
44144;BME280;43510;51.920;4.492;2022-12-18T08:31:33;65663.41;;;-1.91;91.41
44144;BME280;43510;51.920;4.492;2022-12-18T08:33:59;65662.66;;;-1.94;91.43
44144;BME280;43510;51.920;4.492;2022-12-18T08:36:24;65671.09;;;-1.84;91.35
44144;BME280;43510;51.920;4.492;2022-12-18T08:38:51;65674.03;;;-1.86;91.13
44144;BME280;43510;51.920;4.492;2022-12-18T08:41:17;65678.81;;;-1.77;90.75
44144;BME280;43510;51.920;4.492;2022-12-18T08:43:43;65677.56;;;-1.74;90.35
44144;BME280;43510;51.920;4.492;2022-12-18T08:46:36;65681.41;;;-1.77;90.87
44144;BME280;43510;51.920;4.492;2022-12-18T08:49:02;65679.94;;;-1.76;90.38
44144;BME280;43510;51.920;4.492;2022-12-18T08:51:28;65677.72;;;-1.78;91.06
44144;BME280;43510;51.920;4.492;2022-12-18T08:53:53;65688.56;;;-1.71;90.54
44144;BME280;43510;51.920;4.492;2022-12-18T08:56:19;65688.75;;;-1.68;90.35
44144;BME280;43510;51.920;4.492;2022-12-18T08:58:44;65693.53;;;-1.66;90.17
44144;BME280;43510;51.920;4.492;2022-12-18T09:01:11;65699.59;;;-1.60;90.25
44144;BME280;43510;51.920;4.492;2022-12-18T09:03:38;65695.19;;;-1.65;90.58
44144;BME280;43510;51.920;4.492;2022-12-18T09:06:04;65707.13;;;-1.49;90.14
44144;BME280;43510;51.920;4.492;2022-12-18T09:08:30;65711.56;;;-1.45;90.35
44144;BME280;43510;51.920;4.492;2022-12-18T09:11:00;65705.69;;;-1.48;89.97
44144;BME280;43510;51.920;4.492;2022-12-18T09:13:25;65696.13;;;-1.59;89.70
44144;BME280;43510;51.920;4.492;2022-12-18T09:15:53;65718.75;;;-1.38;90.06
44144;BME280;43510;51.920;4.492;2022-12-18T09:18:20;65724.97;;;-1.37;90.57
44144;BME280;43510;51.920;4.492;2022-12-18T09:20:46;65726.81;;;-1.33;90.15
44144;BME280;43510;51.920;4.492;2022-12-18T09:23:14;65732.88;;;-1.28;89.82
44144;BME280;43510;51.920;4.492;2022-12-18T09:25:39;65727.94;;;-1.32;90.00
44144;BME280;43510;51.920;4.492;2022-12-18T09:28:10;65736.19;;;-1.25;90.09
44144;BME280;43510;51.920;4.492;2022-12-18T09:30:38;65732.53;;;-1.26;89.18
44144;BME280;43510;51.920;4.492;2022-12-18T09:33:03;65742.47;;;-1.16;89.55
44144;BME280;43510;51.920;4.492;2022-12-18T09:35:30;65747.97;;;-1.11;89.14
44144;BME280;43510;51.920;4.492;2022-12-18T09:37:55;65754.22;;;-1.10;88.87
44144;BME280;43510;51.920;4.492;2022-12-18T09:40:25;65755.50;;;-1.07;88.75
44144;BME280;43510;51.920;4.492;2022-12-18T09:42:58;65763.59;;;-1.02;88.28
44144;BME280;43510;51.920;4.492;2022-12-18T09:45:24;65767.47;;;-0.98;88.18
44144;BME280;43510;51.920;4.492;2022-12-18T09:47:51;65764.91;;;-0.98;87.95
44144;BME280;43510;51.920;4.492;2022-12-18T09:52:45;65759.38;;;-1.03;88.54
44144;BME280;43510;51.920;4.492;2022-12-18T09:58:00;65773.72;;;-0.90;88.16
44144;BME280;43510;51.920;4.492;2022-12-18T10:00:30;65783.66;;;-0.81;88.26
44144;BME280;43510;51.920;4.492;2022-12-18T10:03:01;65794.50;;;-0.73;88.11
44144;BME280;43510;51.920;4.492;2022-12-18T10:10:46;65794.69;;;-0.71;87.60
44144;BME280;43510;51.920;4.492;2022-12-18T10:13:21;65809.06;;;-0.58;87.27
44144;BME280;43510;51.920;4.492;2022-12-18T10:16:07;65817.88;;;-0.50;87.07
44144;BME280;43510;51.920;4.492;2022-12-18T10:21:18;65827.81;;;-0.41;87.81
44144;BME280;43510;51.920;4.492;2022-12-18T10:26:22;65826.34;;;-0.39;87.19
44144;BME280;43510;51.920;4.492;2022-12-18T10:28:47;65827.47;;;-0.38;87.66
44144;BME280;43510;51.920;4.492;2022-12-18T10:31:19;65838.88;;;-0.30;87.16
44144;BME280;43510;51.920;4.492;2022-12-18T10:33:45;65849.72;;;-0.23;86.49
44144;BME280;43510;51.920;4.492;2022-12-18T10:36:11;65853.03;;;-0.20;86.63
44144;BME280;43510;51.920;4.492;2022-12-18T10:38:36;65852.13;;;-0.18;86.83
44144;BME280;43510;51.920;4.492;2022-12-18T10:41:23;65871.66;;;0.02;86.78
44144;BME280;43510;51.920;4.492;2022-12-18T10:44:14;65878.28;;;0.08;86.83
44144;BME280;43510;51.920;4.492;2022-12-18T10:46:41;65866.47;;;-0.05;86.98
44144;BME280;43510;51.920;4.492;2022-12-18T10:49:18;65869.97;;;0.00;86.40
44144;BME280;43510;51.920;4.492;2022-12-18T10:51:44;65864.28;;;-0.07;86.18
44144;BME280;43510;51.920;4.492;2022-12-18T10:54:21;65886.75;;;0.11;86.60
44144;BME280;43510;51.920;4.492;2022-12-18T10:56:47;65891.72;;;0.16;86.53
44144;BME280;43510;51.920;4.492;2022-12-18T10:59:17;65891.91;;;0.18;85.30
44144;BME280;43510;51.920;4.492;2022-12-18T11:01:56;65881.97;;;0.09;85.57
44144;BME280;43510;51.920;4.492;2022-12-18T11:04:31;65883.78;;;0.13;86.35
44144;BME280;43510;51.920;4.492;2022-12-18T11:07:05;65895.56;;;0.19;86.17
44144;BME280;43510;51.920;4.492;2022-12-18T11:09:37;65890.81;;;0.17;85.74
44144;BME280;43510;51.920;4.492;2022-12-18T11:12:06;65896.88;;;0.23;86.03
44144;BME280;43510;51.920;4.492;2022-12-18T11:14:46;65905.16;;;0.30;85.53
44144;BME280;43510;51.920;4.492;2022-12-18T11:19:55;65904.06;;;0.29;85.37
44144;BME280;43510;51.920;4.492;2022-12-18T11:22:31;65918.41;;;0.43;85.77
44144;BME280;43510;51.920;4.492;2022-12-18T11:25:18;65933.53;;;0.59;86.44
44144;BME280;43510;51.920;4.492;2022-12-18T11:27:49;65923.41;;;0.47;86.03
44144;BME280;43510;51.920;4.492;2022-12-18T11:30:34;65945.34;;;0.65;85.67
44144;BME280;43510;51.920;4.492;2022-12-18T11:33:10;65937.22;;;0.60;84.73
44144;BME280;43510;51.920;4.492;2022-12-18T11:35:43;65937.59;;;0.58;85.39
44144;BME280;43510;51.920;4.492;2022-12-18T11:40:59;65933.53;;;0.59;84.87
44144;BME280;43510;51.920;4.492;2022-12-18T11:43:37;65928.94;;;0.52;85.11
44144;BME280;43510;51.920;4.492;2022-12-18T11:46:08;65922.47;;;0.49;84.83
44144;BME280;43510;51.920;4.492;2022-12-18T11:49:26;65926.72;;;0.50;85.11
44144;BME280;43510;51.920;4.492;2022-12-18T11:51:42;65928.38;;;0.52;85.07
44144;BME280;43510;51.920;4.492;2022-12-18T11:54:13;65926.53;;;0.48;85.31
44144;BME280;43510;51.920;4.492;2022-12-18T12:02:42;65917.88;;;0.42;86.66
44144;BME280;43510;51.920;4.492;2022-12-18T12:08:29;65951.41;;;0.77;84.81
44144;BME280;43510;51.920;4.492;2022-12-18T12:19:36;65955.28;;;0.74;84.20
44144;BME280;43510;51.920;4.492;2022-12-18T12:22:31;65966.53;;;0.87;84.23
44144;BME280;43510;51.920;4.492;2022-12-18T12:31:00;65965.78;;;0.83;84.13
44144;BME280;43510;51.920;4.492;2022-12-18T12:34:22;65961.53;;;0.82;84.09
44144;BME280;43510;51.920;4.492;2022-12-18T12:37:12;65966.72;;;0.89;84.12
44144;BME280;43510;51.920;4.492;2022-12-18T12:39:31;65969.47;;;0.92;83.96
44144;BME280;43510;51.920;4.492;2022-12-18T12:41:59;65966.16;;;0.81;83.80
44144;BME280;43510;51.920;4.492;2022-12-18T12:44:53;65973.72;;;0.93;84.13
44144;BME280;43510;51.920;4.492;2022-12-18T12:47:41;65987.91;;;1.04;83.32
44144;BME280;43510;51.920;4.492;2022-12-18T12:50:18;65981.63;;;1.03;83.43
44144;BME280;43510;51.920;4.492;2022-12-18T12:52:50;65975.53;;;0.97;83.48
44144;BME280;43510;51.920;4.492;2022-12-18T12:55:22;65983.66;;;1.02;83.67
44144;BME280;43510;51.920;4.492;2022-12-18T13:03:43;65996.00;;;1.16;82.99
44144;BME280;43510;51.920;4.492;2022-12-18T13:06:33;65995.09;;;1.10;83.30
44144;BME280;43510;51.920;4.492;2022-12-18T13:09:02;65990.28;;;1.08;82.92
44144;BME280;43510;51.920;4.492;2022-12-18T13:11:42;65990.47;;;1.11;83.52
44144;BME280;43510;51.920;4.492;2022-12-18T13:14:37;65988.81;;;1.09;82.74
44144;BME280;43510;51.920;4.492;2022-12-18T13:20:03;65995.44;;;1.15;83.68
44144;BME280;43510;51.920;4.492;2022-12-18T13:22:34;65992.16;;;1.12;83.80
44144;BME280;43510;51.920;4.492;2022-12-18T13:25:00;65991.75;;;1.07;83.41
44144;BME280;43510;51.920;4.492;2022-12-18T13:35:52;65988.81;;;1.09;83.93
44144;BME280;43510;51.920;4.492;2022-12-18T13:38:25;65992.88;;;1.08;83.48
44144;BME280;43510;51.920;4.492;2022-12-18T13:41:01;65986.78;;;1.03;83.89
44144;BME280;43510;51.920;4.492;2022-12-18T13:46:00;65989.56;;;1.05;84.15
44144;BME280;43510;51.920;4.492;2022-12-18T13:48:27;65982.00;;;1.01;83.46
44144;BME280;43510;51.920;4.492;2022-12-18T13:51:06;65990.84;;;1.09;84.26
44144;BME280;43510;51.920;4.492;2022-12-18T13:53:49;65993.63;;;1.11;84.39
44144;BME280;43510;51.920;4.492;2022-12-18T13:56:25;65996.91;;;1.14;84.64
44144;BME280;43510;51.920;4.492;2022-12-18T13:59:41;66002.44;;;1.19;85.12
44144;BME280;43510;51.920;4.492;2022-12-18T14:02:16;66001.34;;;1.18;85.23
44144;BME280;43510;51.920;4.492;2022-12-18T14:04:45;65995.44;;;1.15;84.73
44144;BME280;43510;51.920;4.492;2022-12-18T14:07:14;65991.03;;;1.11;85.30
44144;BME280;43510;51.920;4.492;2022-12-18T14:09:46;65995.44;;;1.15;85.11
44144;BME280;43510;51.920;4.492;2022-12-18T14:12:22;66005.78;;;1.22;85.34
44144;BME280;43510;51.920;4.492;2022-12-18T14:18:01;65999.88;;;1.19;85.08
44144;BME280;43510;51.920;4.492;2022-12-18T14:20:31;65996.00;;;1.16;85.08
44144;BME280;43510;51.920;4.492;2022-12-18T14:22:58;65985.31;;;1.04;85.88
44144;BME280;43510;51.920;4.492;2022-12-18T14:25:27;65991.94;;;1.10;85.58
44144;BME280;43510;51.920;4.492;2022-12-18T14:30:43;66001.34;;;1.18;86.04
44144;BME280;43510;51.920;4.492;2022-12-18T14:33:10;66005.59;;;1.20;85.89
44144;BME280;43510;51.920;4.492;2022-12-18T14:35:38;66005.78;;;1.22;85.74
44144;BME280;43510;51.920;4.492;2022-12-18T14:38:37;66012.06;;;1.31;85.81
44144;BME280;43510;51.920;4.492;2022-12-18T14:41:06;66000.81;;;1.18;85.05
44144;BME280;43510;51.920;4.492;2022-12-18T14:43:37;66002.09;;;1.21;85.62
44144;BME280;43510;51.920;4.492;2022-12-18T14:46:05;66007.63;;;1.27;85.73
44144;BME280;43510;51.920;4.492;2022-12-18T14:48:42;66011.50;;;1.30;86.29
44144;BME280;43510;51.920;4.492;2022-12-18T14:51:20;66004.31;;;1.23;86.02
44144;BME280;43510;51.920;4.492;2022-12-18T14:53:47;66003.94;;;1.18;85.38